sensor_id;sensor_type;location;lat;lon;timestamp;P1;durP1;ratioP1;P2;durP2;ratioP2
18280;SDS011;9266;51.132;17.062;2022-10-19T00:01:56;20.53;;;14.83;;
18280;SDS011;9266;51.132;17.062;2022-10-19T00:04:23;21.07;;;15.83;;
18280;SDS011;9266;51.132;17.062;2022-10-19T00:06:50;22.13;;;16.83;;
18280;SDS011;9266;51.132;17.062;2022-10-19T00:09:18;20.33;;;15.63;;
18280;SDS011;9266;51.132;17.062;2022-10-19T00:11:47;23.60;;;16.40;;
18280;SDS011;9266;51.132;17.062;2022-10-19T00:14:17;28.33;;;18.63;;
18280;SDS011;9266;51.132;17.062;2022-10-19T00:16:45;24.77;;;17.27;;
18280;SDS011;9266;51.132;17.062;2022-10-19T00:19:13;24.83;;;17.03;;
18280;SDS011;9266;51.132;17.062;2022-10-19T00:21:41;23.53;;;17.23;;
18280;SDS011;9266;51.132;17.062;2022-10-19T00:24:08;25.20;;;18.27;;
18280;SDS011;9266;51.132;17.062;2022-10-19T00:26:37;26.13;;;17.33;;
18280;SDS011;9266;51.132;17.062;2022-10-19T00:29:04;25.03;;;17.40;;
18280;SDS011;9266;51.132;17.062;2022-10-19T00:31:34;23.73;;;17.13;;
18280;SDS011;9266;51.132;17.062;2022-10-19T00:34:02;24.83;;;17.97;;
18280;SDS011;9266;51.132;17.062;2022-10-19T00:36:30;25.90;;;18.20;;
18280;SDS011;9266;51.132;17.062;2022-10-19T00:38:59;25.27;;;18.37;;
18280;SDS011;9266;51.132;17.062;2022-10-19T00:41:27;25.80;;;16.77;;
18280;SDS011;9266;51.132;17.062;2022-10-19T00:43:56;22.37;;;16.77;;
18280;SDS011;9266;51.132;17.062;2022-10-19T00:46:23;27.17;;;18.83;;
18280;SDS011;9266;51.132;17.062;2022-10-19T00:48:53;24.57;;;17.43;;
18280;SDS011;9266;51.132;17.062;2022-10-19T00:51:21;25.97;;;18.10;;
18280;SDS011;9266;51.132;17.062;2022-10-19T00:53:49;23.93;;;16.90;;
18280;SDS011;9266;51.132;17.062;2022-10-19T00:56:17;22.43;;;16.77;;
18280;SDS011;9266;51.132;17.062;2022-10-19T00:58:44;25.83;;;17.30;;
18280;SDS011;9266;51.132;17.062;2022-10-19T01:01:13;22.80;;;17.17;;
18280;SDS011;9266;51.132;17.062;2022-10-19T01:03:42;27.93;;;17.60;;
18280;SDS011;9266;51.132;17.062;2022-10-19T01:06:11;28.93;;;19.23;;
18280;SDS011;9266;51.132;17.062;2022-10-19T01:08:39;28.27;;;18.13;;
18280;SDS011;9266;51.132;17.062;2022-10-19T01:11:11;28.13;;;18.40;;
18280;SDS011;9266;51.132;17.062;2022-10-19T01:13:42;25.77;;;18.23;;
18280;SDS011;9266;51.132;17.062;2022-10-19T01:16:13;27.27;;;18.10;;
18280;SDS011;9266;51.132;17.062;2022-10-19T01:18:43;25.93;;;18.67;;
18280;SDS011;9266;51.132;17.062;2022-10-19T01:29:34;29.67;;;18.83;;
18280;SDS011;9266;51.132;17.062;2022-10-19T01:32:07;25.97;;;16.93;;
18280;SDS011;9266;51.132;17.062;2022-10-19T01:34:38;30.30;;;17.73;;
18280;SDS011;9266;51.132;17.062;2022-10-19T01:37:11;27.30;;;18.40;;
18280;SDS011;9266;51.132;17.062;2022-10-19T01:39:46;29.90;;;18.13;;
18280;SDS011;9266;51.132;17.062;2022-10-19T01:42:20;26.70;;;17.67;;
18280;SDS011;9266;51.132;17.062;2022-10-19T01:44:50;33.13;;;19.80;;
18280;SDS011;9266;51.132;17.062;2022-10-19T01:47:21;29.07;;;19.67;;
18280;SDS011;9266;51.132;17.062;2022-10-19T01:49:51;34.23;;;21.43;;
18280;SDS011;9266;51.132;17.062;2022-10-19T01:52:22;32.77;;;20.87;;
18280;SDS011;9266;51.132;17.062;2022-10-19T01:54:52;35.47;;;22.47;;
18280;SDS011;9266;51.132;17.062;2022-10-19T01:57:22;37.50;;;21.97;;
18280;SDS011;9266;51.132;17.062;2022-10-19T01:59:50;39.07;;;24.27;;
18280;SDS011;9266;51.132;17.062;2022-10-19T02:02:18;39.57;;;24.30;;
18280;SDS011;9266;51.132;17.062;2022-10-19T02:04:48;42.30;;;25.07;;
18280;SDS011;9266;51.132;17.062;2022-10-19T02:07:16;42.63;;;25.20;;
18280;SDS011;9266;51.132;17.062;2022-10-19T02:09:44;40.77;;;25.60;;
18280;SDS011;9266;51.132;17.062;2022-10-19T02:12:12;41.30;;;25.33;;
18280;SDS011;9266;51.132;17.062;2022-10-19T02:14:40;44.40;;;25.60;;
18280;SDS011;9266;51.132;17.062;2022-10-19T02:17:09;44.63;;;26.70;;
18280;SDS011;9266;51.132;17.062;2022-10-19T02:19:39;43.60;;;25.70;;
18280;SDS011;9266;51.132;17.062;2022-10-19T02:22:08;45.90;;;26.80;;
18280;SDS011;9266;51.132;17.062;2022-10-19T02:24:35;40.13;;;26.43;;
18280;SDS011;9266;51.132;17.062;2022-10-19T02:27:03;40.60;;;26.07;;
18280;SDS011;9266;51.132;17.062;2022-10-19T02:29:31;45.23;;;26.90;;
18280;SDS011;9266;51.132;17.062;2022-10-19T02:31:59;41.33;;;25.77;;
18280;SDS011;9266;51.132;17.062;2022-10-19T02:34:27;45.10;;;27.93;;
18280;SDS011;9266;51.132;17.062;2022-10-19T02:36:54;42.97;;;26.97;;
18280;SDS011;9266;51.132;17.062;2022-10-19T02:39:23;47.73;;;28.10;;
18280;SDS011;9266;51.132;17.062;2022-10-19T02:41:51;44.07;;;26.97;;
18280;SDS011;9266;51.132;17.062;2022-10-19T02:44:21;47.93;;;27.73;;
18280;SDS011;9266;51.132;17.062;2022-10-19T02:46:50;47.77;;;27.33;;
18280;SDS011;9266;51.132;17.062;2022-10-19T02:49:19;46.43;;;27.70;;
18280;SDS011;9266;51.132;17.062;2022-10-19T02:51:54;42.57;;;26.77;;
18280;SDS011;9266;51.132;17.062;2022-10-19T02:54:25;44.83;;;27.57;;
18280;SDS011;9266;51.132;17.062;2022-10-19T02:56:52;42.53;;;27.20;;
18280;SDS011;9266;51.132;17.062;2022-10-19T02:59:20;44.73;;;27.90;;
18280;SDS011;9266;51.132;17.062;2022-10-19T03:01:47;45.53;;;27.93;;
18280;SDS011;9266;51.132;17.062;2022-10-19T03:04:14;45.07;;;28.97;;
18280;SDS011;9266;51.132;17.062;2022-10-19T03:06:43;45.37;;;28.93;;
18280;SDS011;9266;51.132;17.062;2022-10-19T03:09:10;47.33;;;27.37;;
18280;SDS011;9266;51.132;17.062;2022-10-19T03:11:38;43.53;;;28.03;;
18280;SDS011;9266;51.132;17.062;2022-10-19T03:14:08;46.63;;;28.37;;
18280;SDS011;9266;51.132;17.062;2022-10-19T03:16:35;45.67;;;27.60;;
18280;SDS011;9266;51.132;17.062;2022-10-19T03:19:02;44.37;;;27.73;;
18280;SDS011;9266;51.132;17.062;2022-10-19T03:21:29;45.10;;;28.37;;
18280;SDS011;9266;51.132;17.062;2022-10-19T03:23:58;40.37;;;27.07;;
18280;SDS011;9266;51.132;17.062;2022-10-19T03:26:25;42.07;;;26.57;;
18280;SDS011;9266;51.132;17.062;2022-10-19T03:28:54;41.87;;;27.33;;
18280;SDS011;9266;51.132;17.062;2022-10-19T03:31:21;42.93;;;28.13;;
18280;SDS011;9266;51.132;17.062;2022-10-19T03:33:51;36.87;;;26.03;;
18280;SDS011;9266;51.132;17.062;2022-10-19T03:36:19;44.30;;;27.53;;
18280;SDS011;9266;51.132;17.062;2022-10-19T03:38:48;38.90;;;26.23;;
18280;SDS011;9266;51.132;17.062;2022-10-19T03:41:18;38.80;;;24.73;;
18280;SDS011;9266;51.132;17.062;2022-10-19T03:43:45;40.53;;;25.67;;
18280;SDS011;9266;51.132;17.062;2022-10-19T03:46:14;40.87;;;25.27;;
18280;SDS011;9266;51.132;17.062;2022-10-19T03:48:42;40.40;;;26.03;;
18280;SDS011;9266;51.132;17.062;2022-10-19T03:51:10;40.70;;;25.83;;
18280;SDS011;9266;51.132;17.062;2022-10-19T03:53:37;41.20;;;26.33;;
18280;SDS011;9266;51.132;17.062;2022-10-19T03:56:05;37.67;;;23.63;;
18280;SDS011;9266;51.132;17.062;2022-10-19T03:58:34;38.80;;;24.83;;
18280;SDS011;9266;51.132;17.062;2022-10-19T04:01:05;43.03;;;24.73;;
18280;SDS011;9266;51.132;17.062;2022-10-19T04:03:35;35.63;;;24.90;;
18280;SDS011;9266;51.132;17.062;2022-10-19T04:06:02;39.57;;;24.57;;
18280;SDS011;9266;51.132;17.062;2022-10-19T04:08:31;37.23;;;25.03;;
18280;SDS011;9266;51.132;17.062;2022-10-19T04:10:59;40.07;;;23.60;;
18280;SDS011;9266;51.132;17.062;2022-10-19T04:13:27;34.90;;;24.00;;
18280;SDS011;9266;51.132;17.062;2022-10-19T04:15:55;38.73;;;25.30;;
18280;SDS011;9266;51.132;17.062;2022-10-19T04:18:22;35.67;;;24.53;;
18280;SDS011;9266;51.132;17.062;2022-10-19T04:20:55;35.53;;;23.33;;
18280;SDS011;9266;51.132;17.062;2022-10-19T04:23:22;39.57;;;25.23;;
18280;SDS011;9266;51.132;17.062;2022-10-19T04:25:50;38.90;;;24.90;;
18280;SDS011;9266;51.132;17.062;2022-10-19T04:28:17;37.93;;;25.63;;
18280;SDS011;9266;51.132;17.062;2022-10-19T04:30:44;41.00;;;25.63;;
18280;SDS011;9266;51.132;17.062;2022-10-19T04:33:11;44.33;;;23.70;;
18280;SDS011;9266;51.132;17.062;2022-10-19T04:35:39;36.80;;;23.37;;
18280;SDS011;9266;51.132;17.062;2022-10-19T04:38:07;37.07;;;24.17;;
18280;SDS011;9266;51.132;17.062;2022-10-19T04:40:35;35.67;;;23.10;;
18280;SDS011;9266;51.132;17.062;2022-10-19T04:43:02;36.17;;;22.70;;
18280;SDS011;9266;51.132;17.062;2022-10-19T04:45:34;38.30;;;23.33;;
18280;SDS011;9266;51.132;17.062;2022-10-19T04:48:01;34.13;;;24.00;;
18280;SDS011;9266;51.132;17.062;2022-10-19T04:50:29;36.03;;;23.77;;
18280;SDS011;9266;51.132;17.062;2022-10-19T04:52:56;38.37;;;22.07;;
18280;SDS011;9266;51.132;17.062;2022-10-19T04:55:25;35.90;;;22.30;;
18280;SDS011;9266;51.132;17.062;2022-10-19T04:57:52;39.00;;;23.97;;
18280;SDS011;9266;51.132;17.062;2022-10-19T05:00:19;33.53;;;20.97;;
18280;SDS011;9266;51.132;17.062;2022-10-19T05:02:49;30.30;;;20.03;;
18280;SDS011;9266;51.132;17.062;2022-10-19T05:05:16;31.80;;;19.40;;
18280;SDS011;9266;51.132;17.062;2022-10-19T05:07:43;31.50;;;19.50;;
18280;SDS011;9266;51.132;17.062;2022-10-19T05:10:11;36.07;;;19.00;;
18280;SDS011;9266;51.132;17.062;2022-10-19T05:12:39;32.30;;;18.50;;
18280;SDS011;9266;51.132;17.062;2022-10-19T05:15:07;29.13;;;17.93;;
18280;SDS011;9266;51.132;17.062;2022-10-19T05:17:35;31.23;;;17.80;;
18280;SDS011;9266;51.132;17.062;2022-10-19T05:20:02;28.67;;;18.77;;
18280;SDS011;9266;51.132;17.062;2022-10-19T05:22:30;26.13;;;17.93;;
18280;SDS011;9266;51.132;17.062;2022-10-19T05:24:57;30.07;;;18.07;;
18280;SDS011;9266;51.132;17.062;2022-10-19T05:27:24;25.87;;;17.07;;
18280;SDS011;9266;51.132;17.062;2022-10-19T05:29:53;26.67;;;16.70;;
18280;SDS011;9266;51.132;17.062;2022-10-19T05:32:20;23.70;;;17.17;;
18280;SDS011;9266;51.132;17.062;2022-10-19T05:34:49;24.03;;;14.70;;
18280;SDS011;9266;51.132;17.062;2022-10-19T05:37:16;20.87;;;15.03;;
18280;SDS011;9266;51.132;17.062;2022-10-19T05:39:45;27.80;;;16.90;;
18280;SDS011;9266;51.132;17.062;2022-10-19T05:42:13;21.33;;;13.77;;
18280;SDS011;9266;51.132;17.062;2022-10-19T05:44:40;16.10;;;12.53;;
18280;SDS011;9266;51.132;17.062;2022-10-19T05:47:12;15.97;;;12.00;;
18280;SDS011;9266;51.132;17.062;2022-10-19T05:49:39;19.03;;;11.47;;
18280;SDS011;9266;51.132;17.062;2022-10-19T05:52:06;16.37;;;10.93;;
18280;SDS011;9266;51.132;17.062;2022-10-19T05:54:35;18.23;;;10.73;;
18280;SDS011;9266;51.132;17.062;2022-10-19T05:57:02;16.17;;;10.00;;
18280;SDS011;9266;51.132;17.062;2022-10-19T05:59:30;14.83;;;10.80;;
18280;SDS011;9266;51.132;17.062;2022-10-19T06:01:59;14.40;;;10.07;;
18280;SDS011;9266;51.132;17.062;2022-10-19T06:04:29;14.73;;;9.40;;
18280;SDS011;9266;51.132;17.062;2022-10-19T06:06:57;16.10;;;9.60;;
18280;SDS011;9266;51.132;17.062;2022-10-19T06:09:25;9.77;;;7.70;;
18280;SDS011;9266;51.132;17.062;2022-10-19T06:11:53;16.27;;;7.90;;
18280;SDS011;9266;51.132;17.062;2022-10-19T06:14:20;10.87;;;8.00;;
18280;SDS011;9266;51.132;17.062;2022-10-19T06:16:48;10.70;;;7.87;;
18280;SDS011;9266;51.132;17.062;2022-10-19T06:19:15;10.90;;;7.73;;
18280;SDS011;9266;51.132;17.062;2022-10-19T06:21:44;10.43;;;7.40;;
18280;SDS011;9266;51.132;17.062;2022-10-19T06:24:11;11.53;;;7.07;;
18280;SDS011;9266;51.132;17.062;2022-10-19T06:26:39;11.37;;;7.03;;
18280;SDS011;9266;51.132;17.062;2022-10-19T06:29:06;10.17;;;6.87;;
18280;SDS011;9266;51.132;17.062;2022-10-19T06:31:34;11.57;;;7.07;;
18280;SDS011;9266;51.132;17.062;2022-10-19T06:34:02;10.07;;;7.63;;
18280;SDS011;9266;51.132;17.062;2022-10-19T06:36:30;11.27;;;7.37;;
18280;SDS011;9266;51.132;17.062;2022-10-19T06:38:59;11.20;;;6.93;;
18280;SDS011;9266;51.132;17.062;2022-10-19T06:41:27;12.47;;;7.03;;
18280;SDS011;9266;51.132;17.062;2022-10-19T06:43:54;11.17;;;6.53;;
18280;SDS011;9266;51.132;17.062;2022-10-19T06:46:22;8.90;;;7.30;;
18280;SDS011;9266;51.132;17.062;2022-10-19T06:48:51;13.53;;;7.47;;
18280;SDS011;9266;51.132;17.062;2022-10-19T06:51:18;9.93;;;7.27;;
18280;SDS011;9266;51.132;17.062;2022-10-19T06:53:46;11.23;;;6.87;;
18280;SDS011;9266;51.132;17.062;2022-10-19T06:56:15;12.00;;;7.57;;
18280;SDS011;9266;51.132;17.062;2022-10-19T06:58:42;10.63;;;6.50;;
18280;SDS011;9266;51.132;17.062;2022-10-19T07:01:10;12.50;;;6.97;;
18280;SDS011;9266;51.132;17.062;2022-10-19T07:03:38;11.30;;;7.00;;
18280;SDS011;9266;51.132;17.062;2022-10-19T07:06:07;10.77;;;6.93;;
18280;SDS011;9266;51.132;17.062;2022-10-19T07:08:35;10.33;;;6.90;;
18280;SDS011;9266;51.132;17.062;2022-10-19T07:11:04;14.00;;;6.73;;
18280;SDS011;9266;51.132;17.062;2022-10-19T07:13:33;8.50;;;6.67;;
18280;SDS011;9266;51.132;17.062;2022-10-19T07:16:01;10.27;;;7.30;;
18280;SDS011;9266;51.132;17.062;2022-10-19T07:18:30;10.83;;;6.40;;
18280;SDS011;9266;51.132;17.062;2022-10-19T07:20:58;8.67;;;6.03;;
18280;SDS011;9266;51.132;17.062;2022-10-19T07:23:27;10.53;;;6.67;;
18280;SDS011;9266;51.132;17.062;2022-10-19T07:25:54;12.30;;;6.30;;
18280;SDS011;9266;51.132;17.062;2022-10-19T07:28:26;16.27;;;6.80;;
18280;SDS011;9266;51.132;17.062;2022-10-19T07:30:55;16.20;;;6.73;;
18280;SDS011;9266;51.132;17.062;2022-10-19T07:33:22;12.37;;;6.50;;
18280;SDS011;9266;51.132;17.062;2022-10-19T07:35:49;11.77;;;6.37;;
18280;SDS011;9266;51.132;17.062;2022-10-19T07:38:17;8.30;;;5.83;;
18280;SDS011;9266;51.132;17.062;2022-10-19T07:40:44;11.60;;;6.07;;
18280;SDS011;9266;51.132;17.062;2022-10-19T07:43:11;9.47;;;6.30;;
18280;SDS011;9266;51.132;17.062;2022-10-19T07:45:39;12.37;;;7.03;;
18280;SDS011;9266;51.132;17.062;2022-10-19T07:48:08;7.57;;;5.77;;
18280;SDS011;9266;51.132;17.062;2022-10-19T07:50:35;8.27;;;5.90;;
18280;SDS011;9266;51.132;17.062;2022-10-19T07:53:02;10.83;;;5.53;;
18280;SDS011;9266;51.132;17.062;2022-10-19T07:55:32;9.63;;;5.50;;
18280;SDS011;9266;51.132;17.062;2022-10-19T07:57:59;9.97;;;5.93;;
18280;SDS011;9266;51.132;17.062;2022-10-19T08:00:27;8.77;;;5.10;;
18280;SDS011;9266;51.132;17.062;2022-10-19T08:02:54;8.93;;;5.63;;
18280;SDS011;9266;51.132;17.062;2022-10-19T08:05:23;9.00;;;5.23;;
18280;SDS011;9266;51.132;17.062;2022-10-19T08:07:51;5.50;;;4.70;;
18280;SDS011;9266;51.132;17.062;2022-10-19T08:10:18;8.40;;;4.67;;
18280;SDS011;9266;51.132;17.062;2022-10-19T08:12:45;9.30;;;5.00;;
18280;SDS011;9266;51.132;17.062;2022-10-19T08:15:13;8.47;;;4.83;;
18280;SDS011;9266;51.132;17.062;2022-10-19T08:17:40;6.13;;;3.77;;
18280;SDS011;9266;51.132;17.062;2022-10-19T08:20:08;8.43;;;5.07;;
18280;SDS011;9266;51.132;17.062;2022-10-19T08:22:36;6.27;;;4.07;;
18280;SDS011;9266;51.132;17.062;2022-10-19T08:25:06;5.80;;;4.20;;
18280;SDS011;9266;51.132;17.062;2022-10-19T08:27:33;7.10;;;4.57;;
18280;SDS011;9266;51.132;17.062;2022-10-19T08:30:01;6.03;;;4.10;;
18280;SDS011;9266;51.132;17.062;2022-10-19T08:32:29;5.93;;;4.53;;
18280;SDS011;9266;51.132;17.062;2022-10-19T08:34:56;7.47;;;4.20;;
18280;SDS011;9266;51.132;17.062;2022-10-19T08:37:24;9.20;;;4.00;;
18280;SDS011;9266;51.132;17.062;2022-10-19T08:39:53;7.90;;;4.23;;
18280;SDS011;9266;51.132;17.062;2022-10-19T08:42:22;7.77;;;4.20;;
18280;SDS011;9266;51.132;17.062;2022-10-19T08:45:06;6.40;;;3.77;;
18280;SDS011;9266;51.132;17.062;2022-10-19T08:47:43;7.30;;;5.03;;
18280;SDS011;9266;51.132;17.062;2022-10-19T08:50:16;5.90;;;4.10;;
18280;SDS011;9266;51.132;17.062;2022-10-19T08:52:44;8.47;;;3.90;;
18280;SDS011;9266;51.132;17.062;2022-10-19T08:55:18;5.77;;;3.67;;
18280;SDS011;9266;51.132;17.062;2022-10-19T08:57:49;7.03;;;4.10;;
18280;SDS011;9266;51.132;17.062;2022-10-19T09:00:23;8.40;;;3.87;;
18280;SDS011;9266;51.132;17.062;2022-10-19T09:02:56;5.87;;;3.67;;
18280;SDS011;9266;51.132;17.062;2022-10-19T09:05:31;6.97;;;3.43;;
18280;SDS011;9266;51.132;17.062;2022-10-19T09:08:00;4.07;;;2.80;;
18280;SDS011;9266;51.132;17.062;2022-10-19T09:10:30;7.93;;;3.93;;
18280;SDS011;9266;51.132;17.062;2022-10-19T09:12:59;5.53;;;3.37;;
18280;SDS011;9266;51.132;17.062;2022-10-19T09:15:28;4.47;;;3.27;;
18280;SDS011;9266;51.132;17.062;2022-10-19T09:17:59;5.90;;;2.97;;
18280;SDS011;9266;51.132;17.062;2022-10-19T09:20:28;4.63;;;3.23;;
18280;SDS011;9266;51.132;17.062;2022-10-19T09:22:59;6.07;;;3.20;;
18280;SDS011;9266;51.132;17.062;2022-10-19T09:25:30;6.83;;;3.00;;
18280;SDS011;9266;51.132;17.062;2022-10-19T09:28:02;7.17;;;3.57;;
18280;SDS011;9266;51.132;17.062;2022-10-19T09:30:32;5.83;;;3.27;;
18280;SDS011;9266;51.132;17.062;2022-10-19T09:33:01;5.60;;;2.67;;
18280;SDS011;9266;51.132;17.062;2022-10-19T09:35:31;4.50;;;2.90;;
18280;SDS011;9266;51.132;17.062;2022-10-19T09:37:59;4.60;;;2.70;;
18280;SDS011;9266;51.132;17.062;2022-10-19T09:40:31;4.80;;;2.80;;
18280;SDS011;9266;51.132;17.062;2022-10-19T09:42:58;2.50;;;2.30;;
18280;SDS011;9266;51.132;17.062;2022-10-19T09:45:34;9.70;;;2.50;;
18280;SDS011;9266;51.132;17.062;2022-10-19T09:48:03;3.13;;;2.10;;
18280;SDS011;9266;51.132;17.062;2022-10-19T09:50:32;3.57;;;2.37;;
18280;SDS011;9266;51.132;17.062;2022-10-19T09:53:01;4.90;;;2.40;;
18280;SDS011;9266;51.132;17.062;2022-10-19T09:55:35;4.63;;;2.57;;
18280;SDS011;9266;51.132;17.062;2022-10-19T09:58:03;2.90;;;2.23;;
18280;SDS011;9266;51.132;17.062;2022-10-19T10:00:36;7.97;;;3.53;;
18280;SDS011;9266;51.132;17.062;2022-10-19T10:03:04;4.30;;;2.30;;
18280;SDS011;9266;51.132;17.062;2022-10-19T10:05:33;5.70;;;2.47;;
18280;SDS011;9266;51.132;17.062;2022-10-19T10:08:02;5.60;;;3.00;;
18280;SDS011;9266;51.132;17.062;2022-10-19T10:10:31;2.83;;;2.10;;
18280;SDS011;9266;51.132;17.062;2022-10-19T10:13:03;6.17;;;2.20;;
18280;SDS011;9266;51.132;17.062;2022-10-19T10:15:34;3.93;;;2.30;;
18280;SDS011;9266;51.132;17.062;2022-10-19T10:18:10;4.40;;;2.50;;
18280;SDS011;9266;51.132;17.062;2022-10-19T10:20:41;5.17;;;2.80;;
18280;SDS011;9266;51.132;17.062;2022-10-19T10:23:22;4.70;;;2.30;;
18280;SDS011;9266;51.132;17.062;2022-10-19T10:25:53;5.37;;;2.30;;
18280;SDS011;9266;51.132;17.062;2022-10-19T10:28:23;4.23;;;2.17;;
18280;SDS011;9266;51.132;17.062;2022-10-19T10:30:52;6.33;;;2.17;;
18280;SDS011;9266;51.132;17.062;2022-10-19T10:33:20;7.53;;;2.20;;
18280;SDS011;9266;51.132;17.062;2022-10-19T10:35:51;3.67;;;2.47;;
18280;SDS011;9266;51.132;17.062;2022-10-19T10:38:21;3.53;;;2.10;;
18280;SDS011;9266;51.132;17.062;2022-10-19T10:40:50;5.53;;;2.40;;
18280;SDS011;9266;51.132;17.062;2022-10-19T10:43:18;2.73;;;1.70;;
18280;SDS011;9266;51.132;17.062;2022-10-19T10:45:48;2.03;;;1.80;;
18280;SDS011;9266;51.132;17.062;2022-10-19T10:48:23;6.13;;;3.17;;
18280;SDS011;9266;51.132;17.062;2022-10-19T10:50:53;4.63;;;2.27;;
18280;SDS011;9266;51.132;17.062;2022-10-19T10:53:30;6.03;;;2.07;;
18280;SDS011;9266;51.132;17.062;2022-10-19T10:55:58;2.40;;;1.60;;
18280;SDS011;9266;51.132;17.062;2022-10-19T10:58:29;1.97;;;1.40;;
18280;SDS011;9266;51.132;17.062;2022-10-19T11:01:00;2.13;;;1.33;;
18280;SDS011;9266;51.132;17.062;2022-10-19T11:03:28;2.07;;;1.37;;
18280;SDS011;9266;51.132;17.062;2022-10-19T11:05:57;1.70;;;1.40;;
18280;SDS011;9266;51.132;17.062;2022-10-19T11:08:27;2.37;;;1.50;;
18280;SDS011;9266;51.132;17.062;2022-10-19T11:10:58;1.40;;;1.30;;
18280;SDS011;9266;51.132;17.062;2022-10-19T11:13:28;4.07;;;1.53;;
18280;SDS011;9266;51.132;17.062;2022-10-19T11:16:01;1.87;;;1.20;;
18280;SDS011;9266;51.132;17.062;2022-10-19T11:18:29;2.50;;;1.40;;
18280;SDS011;9266;51.132;17.062;2022-10-19T11:21:00;2.97;;;1.20;;
18280;SDS011;9266;51.132;17.062;2022-10-19T11:26:24;1.60;;;1.30;;
18280;SDS011;9266;51.132;17.062;2022-10-19T11:28:57;1.30;;;1.20;;
18280;SDS011;9266;51.132;17.062;2022-10-19T11:31:33;1.63;;;1.30;;
18280;SDS011;9266;51.132;17.062;2022-10-19T11:34:03;1.37;;;1.23;;
18280;SDS011;9266;51.132;17.062;2022-10-19T11:36:38;1.77;;;1.17;;
18280;SDS011;9266;51.132;17.062;2022-10-19T11:39:12;4.27;;;1.50;;
18280;SDS011;9266;51.132;17.062;2022-10-19T11:41:46;1.53;;;1.30;;
18280;SDS011;9266;51.132;17.062;2022-10-19T11:44:18;2.47;;;1.30;;
18280;SDS011;9266;51.132;17.062;2022-10-19T11:46:50;1.47;;;1.37;;
18280;SDS011;9266;51.132;17.062;2022-10-19T11:49:22;1.67;;;1.57;;
18280;SDS011;9266;51.132;17.062;2022-10-19T11:51:54;3.30;;;1.40;;
18280;SDS011;9266;51.132;17.062;2022-10-19T11:54:30;2.50;;;1.60;;
18280;SDS011;9266;51.132;17.062;2022-10-19T11:57:01;3.10;;;1.80;;
18280;SDS011;9266;51.132;17.062;2022-10-19T11:59:31;3.30;;;2.00;;
18280;SDS011;9266;51.132;17.062;2022-10-19T12:02:04;3.27;;;1.87;;
18280;SDS011;9266;51.132;17.062;2022-10-19T12:04:51;4.67;;;2.10;;
18280;SDS011;9266;51.132;17.062;2022-10-19T12:10:06;2.30;;;2.10;;
18280;SDS011;9266;51.132;17.062;2022-10-19T12:12:36;3.63;;;2.30;;
18280;SDS011;9266;51.132;17.062;2022-10-19T12:15:12;5.17;;;2.20;;
18280;SDS011;9266;51.132;17.062;2022-10-19T12:17:45;4.67;;;2.70;;
18280;SDS011;9266;51.132;17.062;2022-10-19T12:20:16;4.57;;;2.73;;
18280;SDS011;9266;51.132;17.062;2022-10-19T12:22:46;5.23;;;2.37;;
18280;SDS011;9266;51.132;17.062;2022-10-19T12:25:15;4.83;;;2.40;;
18280;SDS011;9266;51.132;17.062;2022-10-19T12:27:43;5.37;;;2.83;;
18280;SDS011;9266;51.132;17.062;2022-10-19T12:30:13;4.67;;;2.60;;
18280;SDS011;9266;51.132;17.062;2022-10-19T12:32:43;3.17;;;2.27;;
18280;SDS011;9266;51.132;17.062;2022-10-19T12:35:19;6.13;;;2.50;;
18280;SDS011;9266;51.132;17.062;2022-10-19T12:37:49;3.73;;;2.50;;
18280;SDS011;9266;51.132;17.062;2022-10-19T12:40:21;2.90;;;2.60;;
18280;SDS011;9266;51.132;17.062;2022-10-19T12:42:51;3.90;;;2.60;;
18280;SDS011;9266;51.132;17.062;2022-10-19T12:45:24;4.13;;;2.40;;
18280;SDS011;9266;51.132;17.062;2022-10-19T12:51:03;6.67;;;2.80;;
18280;SDS011;9266;51.132;17.062;2022-10-19T12:53:31;3.50;;;2.23;;
18280;SDS011;9266;51.132;17.062;2022-10-19T12:56:03;2.90;;;2.50;;
18280;SDS011;9266;51.132;17.062;2022-10-19T12:58:32;4.93;;;2.40;;
18280;SDS011;9266;51.132;17.062;2022-10-19T13:01:02;6.37;;;2.53;;
18280;SDS011;9266;51.132;17.062;2022-10-19T13:03:30;4.13;;;2.20;;
18280;SDS011;9266;51.132;17.062;2022-10-19T13:05:59;5.33;;;2.40;;
18280;SDS011;9266;51.132;17.062;2022-10-19T13:08:30;2.90;;;2.60;;
18280;SDS011;9266;51.132;17.062;2022-10-19T13:11:03;2.77;;;2.27;;
18280;SDS011;9266;51.132;17.062;2022-10-19T13:13:47;6.83;;;2.60;;
18280;SDS011;9266;51.132;17.062;2022-10-19T13:19:19;4.90;;;2.53;;
18280;SDS011;9266;51.132;17.062;2022-10-19T13:24:35;5.03;;;2.27;;
18280;SDS011;9266;51.132;17.062;2022-10-19T13:27:25;4.37;;;2.23;;
18280;SDS011;9266;51.132;17.062;2022-10-19T13:29:53;3.43;;;2.50;;
18280;SDS011;9266;51.132;17.062;2022-10-19T13:32:38;4.40;;;2.20;;
18280;SDS011;9266;51.132;17.062;2022-10-19T13:35:23;6.27;;;2.10;;
18280;SDS011;9266;51.132;17.062;2022-10-19T13:40:43;2.77;;;2.10;;
18280;SDS011;9266;51.132;17.062;2022-10-19T13:43:25;3.67;;;2.17;;
18280;SDS011;9266;51.132;17.062;2022-10-19T13:45:55;4.10;;;2.30;;
18280;SDS011;9266;51.132;17.062;2022-10-19T13:48:28;3.33;;;2.00;;
18280;SDS011;9266;51.132;17.062;2022-10-19T13:51:01;4.20;;;2.27;;
18280;SDS011;9266;51.132;17.062;2022-10-19T13:53:37;3.63;;;2.40;;
18280;SDS011;9266;51.132;17.062;2022-10-19T14:04:09;3.77;;;2.40;;
18280;SDS011;9266;51.132;17.062;2022-10-19T14:06:40;4.57;;;2.63;;
18280;SDS011;9266;51.132;17.062;2022-10-19T14:12:02;3.60;;;2.50;;
18280;SDS011;9266;51.132;17.062;2022-10-19T14:14:37;3.60;;;2.50;;
18280;SDS011;9266;51.132;17.062;2022-10-19T14:17:12;4.30;;;2.60;;
18280;SDS011;9266;51.132;17.062;2022-10-19T14:19:44;7.27;;;4.27;;
18280;SDS011;9266;51.132;17.062;2022-10-19T14:25:02;3.93;;;2.57;;
18280;SDS011;9266;51.132;17.062;2022-10-19T14:27:30;5.70;;;2.90;;
18280;SDS011;9266;51.132;17.062;2022-10-19T14:29:57;3.83;;;2.37;;
18280;SDS011;9266;51.132;17.062;2022-10-19T14:32:25;6.30;;;3.20;;
18280;SDS011;9266;51.132;17.062;2022-10-19T14:34:56;5.17;;;3.00;;
18280;SDS011;9266;51.132;17.062;2022-10-19T14:37:25;4.00;;;3.10;;
18280;SDS011;9266;51.132;17.062;2022-10-19T14:39:56;3.70;;;2.57;;
18280;SDS011;9266;51.132;17.062;2022-10-19T14:42:33;2.57;;;2.07;;
18280;SDS011;9266;51.132;17.062;2022-10-19T14:45:01;8.17;;;5.00;;
18280;SDS011;9266;51.132;17.062;2022-10-19T14:47:29;5.83;;;2.80;;
18280;SDS011;9266;51.132;17.062;2022-10-19T14:49:57;4.70;;;3.10;;
18280;SDS011;9266;51.132;17.062;2022-10-19T14:52:26;4.87;;;2.90;;
18280;SDS011;9266;51.132;17.062;2022-10-19T14:54:54;3.23;;;2.57;;
18280;SDS011;9266;51.132;17.062;2022-10-19T14:57:23;4.67;;;2.77;;
18280;SDS011;9266;51.132;17.062;2022-10-19T14:59:52;7.53;;;2.67;;
18280;SDS011;9266;51.132;17.062;2022-10-19T15:02:23;4.83;;;2.50;;
18280;SDS011;9266;51.132;17.062;2022-10-19T15:04:50;2.70;;;2.20;;
18280;SDS011;9266;51.132;17.062;2022-10-19T15:07:22;4.63;;;2.57;;
18280;SDS011;9266;51.132;17.062;2022-10-19T15:09:51;4.43;;;2.70;;
18280;SDS011;9266;51.132;17.062;2022-10-19T15:12:20;3.97;;;3.03;;
18280;SDS011;9266;51.132;17.062;2022-10-19T15:14:48;7.07;;;3.00;;
18280;SDS011;9266;51.132;17.062;2022-10-19T15:20:02;6.63;;;2.83;;
18280;SDS011;9266;51.132;17.062;2022-10-19T15:22:38;5.07;;;3.40;;
18280;SDS011;9266;51.132;17.062;2022-10-19T15:25:22;4.63;;;3.10;;
18280;SDS011;9266;51.132;17.062;2022-10-19T15:27:50;5.57;;;2.97;;
18280;SDS011;9266;51.132;17.062;2022-10-19T15:30:22;5.10;;;2.90;;
18280;SDS011;9266;51.132;17.062;2022-10-19T15:32:51;3.47;;;2.70;;